Whitman, NE (69366)

11:38 AM MDT on September 02, 2015 (GMT -0600)
Thedford | | Change Station
CLOSE
Current Station
Airport
Location: Thedford,
Elevation: 2927 ft
Nearby Weather Stations

Elev 2927 ft 41.96 °N, 100.57 °W | Updated 23 minutes ago

Partly Cloudy
Partly Cloudy
88 °F
Feels Like 86 °F
N
0
Wind Variable Wind from North

Today
High -- | Low -- °F
--% Chance of Precip.
Yesterday
High -- | Low -- °F
Precip. -- in
6:12 AM 7:18 PM
Waning Gibbous, 78% visible
Pressure 29.91 in
Visibility 10.0 miles
Clouds Clear
Heat Index 86 °F
Dew Point 53 °F
Humidity 30%
Rainfall 0.00 in
Snow Depth Not available.
UV 8 out of 12
Pollen 11.00 out of 12
Air Quality Not available.
Flu Activity Not available.
METAR KTIF 021715Z AUTO 00000KT 10SM CLR 31/12 A2991 RMK AO2 T03130117
Pressure 29.91 in
Visibility 10.0 miles
Clouds Clear
Heat Index 86 °F
Dew Point 53 °F
Humidity 30%
Rainfall 0.00 in
Snow Depth Not available.
UV 8 out of 12
Pollen 11.00 out of 12
Air Quality Not available.
Flu Activity Not available.
METAR KTIF 021715Z AUTO 00000KT 10SM CLR 31/12 A2991 RMK AO2 T03130117

10-Day Weather Forecast

×

Almanac

Astronomy

Sep. 02, 2015 Rise Set
Actual Time
Civil Twilight
Nautical Twilight
Astronomical Twilight
Moon
Length of Visible Light
Length of Day
Tomorrow will be .
, % of the Moon is Illuminated

Today's Extremes

State Highs State Lows

Community

WunderPhotos

Upload Photos

1,851,787 photos uploaded!

WunderBlogs® & News

Nearby

Air Quality

  Air Quality AQ Index Pollutant
Not available.

Snow Depth

Station Depth Elevation

Earthquake Activity

City Distance Mag. Time & Date
Minimum magnitude displayed is 2.5.

Coastal Water Temperatures

Place Temperature

Stations

Nearby Weather Stations

Station Location Temp. Windchill Dew Point Humidity Wind Precip. Elev Updated Type